sensor_id;sensor_type;location;lat;lon;timestamp;P1;durP1;ratioP1;P2;durP2;ratioP2
14688;SDS011;7432;48.728;9.154;2022-12-18T00:01:38;50.17;;;27.20;;
14688;SDS011;7432;48.728;9.154;2022-12-18T00:04:06;53.03;;;27.73;;
14688;SDS011;7432;48.728;9.154;2022-12-18T00:06:40;49.70;;;26.90;;
14688;SDS011;7432;48.728;9.154;2022-12-18T00:09:07;54.77;;;28.07;;
14688;SDS011;7432;48.728;9.154;2022-12-18T00:11:34;47.00;;;26.70;;
14688;SDS011;7432;48.728;9.154;2022-12-18T00:14:01;51.10;;;25.80;;
14688;SDS011;7432;48.728;9.154;2022-12-18T00:16:28;53.03;;;26.30;;
14688;SDS011;7432;48.728;9.154;2022-12-18T00:18:57;49.97;;;25.37;;
14688;SDS011;7432;48.728;9.154;2022-12-18T00:21:26;51.53;;;25.93;;
14688;SDS011;7432;48.728;9.154;2022-12-18T00:23:54;50.77;;;24.73;;
14688;SDS011;7432;48.728;9.154;2022-12-18T00:26:21;54.17;;;26.63;;
14688;SDS011;7432;48.728;9.154;2022-12-18T00:28:49;51.97;;;27.30;;
14688;SDS011;7432;48.728;9.154;2022-12-18T00:31:17;47.73;;;24.97;;
14688;SDS011;7432;48.728;9.154;2022-12-18T00:33:45;48.67;;;25.33;;
14688;SDS011;7432;48.728;9.154;2022-12-18T00:36:12;52.13;;;25.53;;
14688;SDS011;7432;48.728;9.154;2022-12-18T00:38:41;50.37;;;25.60;;
14688;SDS011;7432;48.728;9.154;2022-12-18T00:41:08;44.57;;;24.90;;
14688;SDS011;7432;48.728;9.154;2022-12-18T00:43:36;45.07;;;24.40;;
14688;SDS011;7432;48.728;9.154;2022-12-18T00:46:02;51.73;;;26.27;;
14688;SDS011;7432;48.728;9.154;2022-12-18T00:48:28;45.60;;;24.80;;
14688;SDS011;7432;48.728;9.154;2022-12-18T00:50:55;44.90;;;23.93;;
14688;SDS011;7432;48.728;9.154;2022-12-18T00:53:21;47.53;;;24.53;;
14688;SDS011;7432;48.728;9.154;2022-12-18T00:55:49;47.33;;;24.43;;
14688;SDS011;7432;48.728;9.154;2022-12-18T00:58:16;47.50;;;25.00;;
14688;SDS011;7432;48.728;9.154;2022-12-18T01:00:42;45.43;;;24.73;;
14688;SDS011;7432;48.728;9.154;2022-12-18T01:03:10;45.50;;;25.27;;
14688;SDS011;7432;48.728;9.154;2022-12-18T01:05:39;44.17;;;23.67;;
14688;SDS011;7432;48.728;9.154;2022-12-18T01:08:06;43.27;;;24.77;;
14688;SDS011;7432;48.728;9.154;2022-12-18T01:10:32;50.83;;;24.57;;
14688;SDS011;7432;48.728;9.154;2022-12-18T01:13:00;44.37;;;23.40;;
14688;SDS011;7432;48.728;9.154;2022-12-18T01:15:27;44.43;;;23.27;;
14688;SDS011;7432;48.728;9.154;2022-12-18T01:17:53;50.60;;;24.47;;
14688;SDS011;7432;48.728;9.154;2022-12-18T01:20:19;46.27;;;23.27;;
14688;SDS011;7432;48.728;9.154;2022-12-18T01:22:46;51.27;;;26.27;;
14688;SDS011;7432;48.728;9.154;2022-12-18T01:25:12;43.57;;;23.37;;
14688;SDS011;7432;48.728;9.154;2022-12-18T01:27:39;45.33;;;24.90;;
14688;SDS011;7432;48.728;9.154;2022-12-18T01:30:07;48.10;;;24.97;;
14688;SDS011;7432;48.728;9.154;2022-12-18T01:32:34;38.67;;;22.23;;
14688;SDS011;7432;48.728;9.154;2022-12-18T01:35:00;40.40;;;21.33;;
14688;SDS011;7432;48.728;9.154;2022-12-18T01:37:27;46.53;;;22.33;;
14688;SDS011;7432;48.728;9.154;2022-12-18T01:39:54;40.60;;;22.77;;
14688;SDS011;7432;48.728;9.154;2022-12-18T01:42:20;44.03;;;23.77;;
14688;SDS011;7432;48.728;9.154;2022-12-18T01:44:52;41.97;;;22.40;;
14688;SDS011;7432;48.728;9.154;2022-12-18T01:47:26;42.23;;;21.53;;
14688;SDS011;7432;48.728;9.154;2022-12-18T01:49:57;41.80;;;22.23;;
14688;SDS011;7432;48.728;9.154;2022-12-18T01:52:25;38.97;;;21.40;;
14688;SDS011;7432;48.728;9.154;2022-12-18T01:54:55;42.83;;;22.33;;
14688;SDS011;7432;48.728;9.154;2022-12-18T01:57:22;38.93;;;22.10;;
14688;SDS011;7432;48.728;9.154;2022-12-18T01:59:52;42.17;;;22.70;;
14688;SDS011;7432;48.728;9.154;2022-12-18T02:02:19;41.27;;;21.50;;
14688;SDS011;7432;48.728;9.154;2022-12-18T02:04:48;40.50;;;21.87;;
14688;SDS011;7432;48.728;9.154;2022-12-18T02:07:17;40.20;;;22.57;;
14688;SDS011;7432;48.728;9.154;2022-12-18T02:09:50;40.27;;;21.90;;
14688;SDS011;7432;48.728;9.154;2022-12-18T02:12:24;39.50;;;21.13;;
14688;SDS011;7432;48.728;9.154;2022-12-18T02:14:58;41.50;;;23.00;;
14688;SDS011;7432;48.728;9.154;2022-12-18T02:17:30;43.57;;;22.63;;
14688;SDS011;7432;48.728;9.154;2022-12-18T02:20:07;41.87;;;22.03;;
14688;SDS011;7432;48.728;9.154;2022-12-18T02:22:42;41.97;;;22.00;;
14688;SDS011;7432;48.728;9.154;2022-12-18T02:25:19;45.73;;;23.83;;
14688;SDS011;7432;48.728;9.154;2022-12-18T02:27:57;45.17;;;22.13;;
14688;SDS011;7432;48.728;9.154;2022-12-18T02:30:26;40.70;;;21.17;;
14688;SDS011;7432;48.728;9.154;2022-12-18T02:32:56;45.53;;;23.00;;
14688;SDS011;7432;48.728;9.154;2022-12-18T02:35:27;42.57;;;23.20;;
14688;SDS011;7432;48.728;9.154;2022-12-18T02:37:56;42.20;;;22.33;;
14688;SDS011;7432;48.728;9.154;2022-12-18T02:40:24;40.67;;;20.97;;
14688;SDS011;7432;48.728;9.154;2022-12-18T02:42:53;37.40;;;20.63;;
14688;SDS011;7432;48.728;9.154;2022-12-18T02:45:21;37.93;;;21.73;;
14688;SDS011;7432;48.728;9.154;2022-12-18T02:47:48;41.80;;;22.47;;
14688;SDS011;7432;48.728;9.154;2022-12-18T02:50:18;37.23;;;21.00;;
14688;SDS011;7432;48.728;9.154;2022-12-18T02:52:50;41.03;;;20.97;;
14688;SDS011;7432;48.728;9.154;2022-12-18T02:55:28;36.90;;;20.40;;
14688;SDS011;7432;48.728;9.154;2022-12-18T02:58:04;39.57;;;21.13;;
14688;SDS011;7432;48.728;9.154;2022-12-18T03:00:39;38.63;;;22.27;;
14688;SDS011;7432;48.728;9.154;2022-12-18T03:03:13;44.17;;;22.93;;
14688;SDS011;7432;48.728;9.154;2022-12-18T03:05:44;35.33;;;20.60;;
14688;SDS011;7432;48.728;9.154;2022-12-18T03:08:20;42.17;;;21.50;;
14688;SDS011;7432;48.728;9.154;2022-12-18T03:10:50;37.57;;;20.77;;
14688;SDS011;7432;48.728;9.154;2022-12-18T03:13:20;35.17;;;20.77;;
14688;SDS011;7432;48.728;9.154;2022-12-18T03:15:55;39.83;;;21.50;;
14688;SDS011;7432;48.728;9.154;2022-12-18T03:18:24;42.07;;;21.57;;
14688;SDS011;7432;48.728;9.154;2022-12-18T03:20:55;33.67;;;19.43;;
14688;SDS011;7432;48.728;9.154;2022-12-18T03:23:27;38.73;;;21.30;;
14688;SDS011;7432;48.728;9.154;2022-12-18T03:25:59;39.03;;;22.27;;
14688;SDS011;7432;48.728;9.154;2022-12-18T03:28:29;37.60;;;21.00;;
14688;SDS011;7432;48.728;9.154;2022-12-18T03:31:03;37.60;;;19.57;;
14688;SDS011;7432;48.728;9.154;2022-12-18T03:33:34;40.53;;;21.37;;
14688;SDS011;7432;48.728;9.154;2022-12-18T03:36:06;39.03;;;20.70;;
14688;SDS011;7432;48.728;9.154;2022-12-18T03:38:32;37.87;;;20.40;;
14688;SDS011;7432;48.728;9.154;2022-12-18T03:40:59;33.83;;;20.23;;
14688;SDS011;7432;48.728;9.154;2022-12-18T03:43:35;33.43;;;20.73;;
14688;SDS011;7432;48.728;9.154;2022-12-18T03:46:15;36.17;;;18.73;;
14688;SDS011;7432;48.728;9.154;2022-12-18T03:48:46;36.63;;;18.90;;
14688;SDS011;7432;48.728;9.154;2022-12-18T03:51:18;35.60;;;19.37;;
14688;SDS011;7432;48.728;9.154;2022-12-18T03:53:52;37.07;;;21.63;;
14688;SDS011;7432;48.728;9.154;2022-12-18T03:56:25;37.50;;;19.47;;
14688;SDS011;7432;48.728;9.154;2022-12-18T03:58:54;34.10;;;18.87;;
14688;SDS011;7432;48.728;9.154;2022-12-18T04:01:25;38.50;;;20.50;;
14688;SDS011;7432;48.728;9.154;2022-12-18T04:03:56;35.37;;;19.77;;
14688;SDS011;7432;48.728;9.154;2022-12-18T04:06:26;33.47;;;19.47;;
14688;SDS011;7432;48.728;9.154;2022-12-18T04:08:54;36.00;;;19.87;;
14688;SDS011;7432;48.728;9.154;2022-12-18T04:11:20;34.90;;;19.63;;
14688;SDS011;7432;48.728;9.154;2022-12-18T04:13:47;35.83;;;19.63;;
14688;SDS011;7432;48.728;9.154;2022-12-18T04:16:13;33.07;;;18.47;;
14688;SDS011;7432;48.728;9.154;2022-12-18T04:18:41;37.23;;;19.73;;
14688;SDS011;7432;48.728;9.154;2022-12-18T04:21:07;34.50;;;19.50;;
14688;SDS011;7432;48.728;9.154;2022-12-18T04:23:34;39.77;;;21.93;;
14688;SDS011;7432;48.728;9.154;2022-12-18T04:26:00;37.43;;;19.80;;
14688;SDS011;7432;48.728;9.154;2022-12-18T04:28:27;38.40;;;20.17;;
14688;SDS011;7432;48.728;9.154;2022-12-18T04:30:53;42.77;;;21.20;;
14688;SDS011;7432;48.728;9.154;2022-12-18T04:33:19;38.50;;;20.27;;
14688;SDS011;7432;48.728;9.154;2022-12-18T04:35:47;41.47;;;20.13;;
14688;SDS011;7432;48.728;9.154;2022-12-18T04:38:13;37.93;;;20.37;;
14688;SDS011;7432;48.728;9.154;2022-12-18T04:40:40;36.03;;;19.33;;
14688;SDS011;7432;48.728;9.154;2022-12-18T04:43:07;35.10;;;20.03;;
14688;SDS011;7432;48.728;9.154;2022-12-18T04:45:33;41.87;;;21.10;;
14688;SDS011;7432;48.728;9.154;2022-12-18T04:48:00;39.07;;;20.20;;
14688;SDS011;7432;48.728;9.154;2022-12-18T04:50:27;39.63;;;20.53;;
14688;SDS011;7432;48.728;9.154;2022-12-18T04:52:55;33.73;;;19.20;;
14688;SDS011;7432;48.728;9.154;2022-12-18T04:55:24;37.37;;;19.73;;
14688;SDS011;7432;48.728;9.154;2022-12-18T04:57:51;35.20;;;19.20;;
14688;SDS011;7432;48.728;9.154;2022-12-18T05:00:18;36.90;;;19.57;;
14688;SDS011;7432;48.728;9.154;2022-12-18T05:02:45;38.17;;;19.50;;
14688;SDS011;7432;48.728;9.154;2022-12-18T05:05:11;31.83;;;17.33;;
14688;SDS011;7432;48.728;9.154;2022-12-18T05:07:37;38.90;;;19.50;;
14688;SDS011;7432;48.728;9.154;2022-12-18T05:10:06;37.13;;;18.23;;
14688;SDS011;7432;48.728;9.154;2022-12-18T05:12:33;41.17;;;19.73;;
14688;SDS011;7432;48.728;9.154;2022-12-18T05:15:19;32.17;;;18.13;;
14688;SDS011;7432;48.728;9.154;2022-12-18T05:17:46;34.00;;;18.30;;
14688;SDS011;7432;48.728;9.154;2022-12-18T05:20:12;32.97;;;17.93;;
14688;SDS011;7432;48.728;9.154;2022-12-18T05:22:38;35.10;;;18.87;;
14688;SDS011;7432;48.728;9.154;2022-12-18T05:25:07;33.57;;;17.93;;
14688;SDS011;7432;48.728;9.154;2022-12-18T05:27:34;35.63;;;18.13;;
14688;SDS011;7432;48.728;9.154;2022-12-18T05:30:00;34.13;;;18.10;;
14688;SDS011;7432;48.728;9.154;2022-12-18T05:32:26;37.10;;;19.60;;
14688;SDS011;7432;48.728;9.154;2022-12-18T05:34:53;35.87;;;17.77;;
14688;SDS011;7432;48.728;9.154;2022-12-18T05:37:19;38.40;;;19.50;;
14688;SDS011;7432;48.728;9.154;2022-12-18T05:39:45;38.90;;;18.53;;
14688;SDS011;7432;48.728;9.154;2022-12-18T05:42:13;35.33;;;17.50;;
14688;SDS011;7432;48.728;9.154;2022-12-18T05:44:40;37.73;;;18.50;;
14688;SDS011;7432;48.728;9.154;2022-12-18T05:47:06;35.53;;;18.23;;
14688;SDS011;7432;48.728;9.154;2022-12-18T05:49:32;37.13;;;18.83;;
14688;SDS011;7432;48.728;9.154;2022-12-18T05:51:59;38.30;;;18.77;;
14688;SDS011;7432;48.728;9.154;2022-12-18T05:54:26;37.83;;;18.43;;
14688;SDS011;7432;48.728;9.154;2022-12-18T05:56:53;38.27;;;17.73;;
14688;SDS011;7432;48.728;9.154;2022-12-18T05:59:21;41.93;;;19.50;;
14688;SDS011;7432;48.728;9.154;2022-12-18T06:01:47;38.37;;;18.80;;
14688;SDS011;7432;48.728;9.154;2022-12-18T06:04:13;36.20;;;18.73;;
14688;SDS011;7432;48.728;9.154;2022-12-18T06:06:40;39.17;;;20.23;;
14688;SDS011;7432;48.728;9.154;2022-12-18T06:09:06;35.97;;;17.90;;
14688;SDS011;7432;48.728;9.154;2022-12-18T06:11:34;31.33;;;17.03;;
14688;SDS011;7432;48.728;9.154;2022-12-18T06:14:02;35.73;;;17.10;;
14688;SDS011;7432;48.728;9.154;2022-12-18T06:16:31;36.43;;;17.10;;
14688;SDS011;7432;48.728;9.154;2022-12-18T06:18:58;38.20;;;17.67;;
14688;SDS011;7432;48.728;9.154;2022-12-18T06:21:25;38.50;;;17.77;;
14688;SDS011;7432;48.728;9.154;2022-12-18T06:23:52;36.10;;;18.03;;
14688;SDS011;7432;48.728;9.154;2022-12-18T06:26:18;32.10;;;16.73;;
14688;SDS011;7432;48.728;9.154;2022-12-18T06:28:45;33.83;;;18.23;;
14688;SDS011;7432;48.728;9.154;2022-12-18T06:31:11;33.93;;;17.63;;
14688;SDS011;7432;48.728;9.154;2022-12-18T06:33:39;30.80;;;16.27;;
14688;SDS011;7432;48.728;9.154;2022-12-18T06:36:07;32.80;;;16.77;;
14688;SDS011;7432;48.728;9.154;2022-12-18T06:38:35;41.13;;;17.10;;
14688;SDS011;7432;48.728;9.154;2022-12-18T06:41:06;34.83;;;18.00;;
14688;SDS011;7432;48.728;9.154;2022-12-18T06:43:33;36.27;;;18.07;;
14688;SDS011;7432;48.728;9.154;2022-12-18T06:45:59;38.83;;;18.37;;
14688;SDS011;7432;48.728;9.154;2022-12-18T06:48:27;37.87;;;16.87;;
14688;SDS011;7432;48.728;9.154;2022-12-18T06:50:55;39.67;;;17.63;;
14688;SDS011;7432;48.728;9.154;2022-12-18T06:53:21;34.13;;;17.13;;
14688;SDS011;7432;48.728;9.154;2022-12-18T06:55:48;32.50;;;16.73;;
14688;SDS011;7432;48.728;9.154;2022-12-18T06:58:14;33.20;;;17.97;;
14688;SDS011;7432;48.728;9.154;2022-12-18T07:00:41;36.00;;;17.63;;
14688;SDS011;7432;48.728;9.154;2022-12-18T07:03:07;31.73;;;17.13;;
14688;SDS011;7432;48.728;9.154;2022-12-18T07:05:34;29.10;;;14.97;;
14688;SDS011;7432;48.728;9.154;2022-12-18T07:08:06;30.77;;;15.43;;
14688;SDS011;7432;48.728;9.154;2022-12-18T07:10:33;34.97;;;15.60;;
14688;SDS011;7432;48.728;9.154;2022-12-18T07:12:59;34.80;;;17.20;;
14688;SDS011;7432;48.728;9.154;2022-12-18T07:15:25;29.63;;;15.63;;
14688;SDS011;7432;48.728;9.154;2022-12-18T07:17:52;32.30;;;16.37;;
14688;SDS011;7432;48.728;9.154;2022-12-18T07:20:18;33.53;;;16.67;;
14688;SDS011;7432;48.728;9.154;2022-12-18T07:22:44;37.53;;;17.67;;
14688;SDS011;7432;48.728;9.154;2022-12-18T07:25:12;30.03;;;15.97;;
14688;SDS011;7432;48.728;9.154;2022-12-18T07:27:39;30.50;;;15.77;;
14688;SDS011;7432;48.728;9.154;2022-12-18T07:30:05;31.37;;;16.67;;
14688;SDS011;7432;48.728;9.154;2022-12-18T07:32:33;33.27;;;16.63;;
14688;SDS011;7432;48.728;9.154;2022-12-18T07:35:00;33.80;;;17.30;;
14688;SDS011;7432;48.728;9.154;2022-12-18T07:37:26;28.93;;;16.00;;
14688;SDS011;7432;48.728;9.154;2022-12-18T07:39:53;30.30;;;16.20;;
14688;SDS011;7432;48.728;9.154;2022-12-18T07:42:20;32.40;;;16.60;;
14688;SDS011;7432;48.728;9.154;2022-12-18T07:45:00;30.63;;;16.33;;
14688;SDS011;7432;48.728;9.154;2022-12-18T07:47:27;28.67;;;15.50;;
14688;SDS011;7432;48.728;9.154;2022-12-18T07:49:54;32.50;;;16.87;;
14688;SDS011;7432;48.728;9.154;2022-12-18T07:52:20;35.97;;;17.50;;
14688;SDS011;7432;48.728;9.154;2022-12-18T07:54:47;32.63;;;17.53;;
14688;SDS011;7432;48.728;9.154;2022-12-18T07:57:14;29.73;;;16.00;;
14688;SDS011;7432;48.728;9.154;2022-12-18T07:59:41;32.07;;;17.00;;
14688;SDS011;7432;48.728;9.154;2022-12-18T08:02:08;29.50;;;16.27;;
14688;SDS011;7432;48.728;9.154;2022-12-18T08:04:34;28.83;;;15.63;;
14688;SDS011;7432;48.728;9.154;2022-12-18T08:07:01;29.80;;;14.63;;
14688;SDS011;7432;48.728;9.154;2022-12-18T08:09:27;29.73;;;15.67;;
14688;SDS011;7432;48.728;9.154;2022-12-18T08:11:54;30.33;;;15.10;;
14688;SDS011;7432;48.728;9.154;2022-12-18T08:14:20;28.47;;;15.77;;
14688;SDS011;7432;48.728;9.154;2022-12-18T08:16:48;29.53;;;16.97;;
14688;SDS011;7432;48.728;9.154;2022-12-18T08:19:14;34.57;;;17.83;;
14688;SDS011;7432;48.728;9.154;2022-12-18T08:21:40;32.87;;;17.20;;
14688;SDS011;7432;48.728;9.154;2022-12-18T08:24:08;36.93;;;17.00;;
14688;SDS011;7432;48.728;9.154;2022-12-18T08:26:35;31.70;;;18.40;;
14688;SDS011;7432;48.728;9.154;2022-12-18T08:29:01;31.20;;;18.53;;
14688;SDS011;7432;48.728;9.154;2022-12-18T08:31:28;36.20;;;20.17;;
14688;SDS011;7432;48.728;9.154;2022-12-18T08:33:57;33.90;;;18.37;;
14688;SDS011;7432;48.728;9.154;2022-12-18T08:36:23;35.23;;;19.23;;
14688;SDS011;7432;48.728;9.154;2022-12-18T08:38:51;34.57;;;18.57;;
14688;SDS011;7432;48.728;9.154;2022-12-18T08:41:18;30.17;;;17.50;;
14688;SDS011;7432;48.728;9.154;2022-12-18T08:43:46;28.87;;;17.67;;
14688;SDS011;7432;48.728;9.154;2022-12-18T08:46:32;30.93;;;18.33;;
14688;SDS011;7432;48.728;9.154;2022-12-18T08:49:02;30.50;;;17.47;;
14688;SDS011;7432;48.728;9.154;2022-12-18T08:51:29;31.73;;;19.00;;
14688;SDS011;7432;48.728;9.154;2022-12-18T08:53:55;35.17;;;19.83;;
14688;SDS011;7432;48.728;9.154;2022-12-18T08:56:22;43.00;;;21.63;;
14688;SDS011;7432;48.728;9.154;2022-12-18T08:58:50;35.80;;;19.90;;
14688;SDS011;7432;48.728;9.154;2022-12-18T09:01:17;37.47;;;20.00;;
14688;SDS011;7432;48.728;9.154;2022-12-18T09:03:44;32.93;;;18.77;;
14688;SDS011;7432;48.728;9.154;2022-12-18T09:06:14;37.80;;;19.17;;
14688;SDS011;7432;48.728;9.154;2022-12-18T09:08:41;33.37;;;18.93;;
14688;SDS011;7432;48.728;9.154;2022-12-18T09:11:10;32.83;;;18.97;;
14688;SDS011;7432;48.728;9.154;2022-12-18T09:13:39;35.30;;;19.17;;
14688;SDS011;7432;48.728;9.154;2022-12-18T09:16:05;34.73;;;19.80;;
14688;SDS011;7432;48.728;9.154;2022-12-18T09:18:32;34.67;;;20.10;;
14688;SDS011;7432;48.728;9.154;2022-12-18T09:20:58;34.70;;;20.30;;
14688;SDS011;7432;48.728;9.154;2022-12-18T09:23:26;39.03;;;21.50;;
14688;SDS011;7432;48.728;9.154;2022-12-18T09:25:58;34.13;;;19.90;;
14688;SDS011;7432;48.728;9.154;2022-12-18T09:28:24;36.93;;;20.83;;
14688;SDS011;7432;48.728;9.154;2022-12-18T09:30:52;33.60;;;19.57;;
14688;SDS011;7432;48.728;9.154;2022-12-18T09:33:18;36.23;;;20.00;;
14688;SDS011;7432;48.728;9.154;2022-12-18T09:35:45;35.63;;;20.97;;
14688;SDS011;7432;48.728;9.154;2022-12-18T09:38:13;32.00;;;19.33;;
14688;SDS011;7432;48.728;9.154;2022-12-18T09:40:43;35.93;;;21.13;;
14688;SDS011;7432;48.728;9.154;2022-12-18T09:43:14;39.90;;;21.50;;
14688;SDS011;7432;48.728;9.154;2022-12-18T09:45:45;34.53;;;20.33;;
14688;SDS011;7432;48.728;9.154;2022-12-18T09:48:15;35.50;;;20.90;;
14688;SDS011;7432;48.728;9.154;2022-12-18T09:50:45;35.87;;;21.43;;
14688;SDS011;7432;48.728;9.154;2022-12-18T09:53:14;42.30;;;22.93;;
14688;SDS011;7432;48.728;9.154;2022-12-18T09:55:46;38.77;;;21.50;;
14688;SDS011;7432;48.728;9.154;2022-12-18T09:58:16;36.33;;;21.23;;
14688;SDS011;7432;48.728;9.154;2022-12-18T10:00:50;39.03;;;22.17;;
14688;SDS011;7432;48.728;9.154;2022-12-18T10:03:17;39.60;;;20.97;;
14688;SDS011;7432;48.728;9.154;2022-12-18T10:05:45;36.67;;;21.53;;
14688;SDS011;7432;48.728;9.154;2022-12-18T10:08:22;38.70;;;21.37;;
14688;SDS011;7432;48.728;9.154;2022-12-18T10:11:00;43.50;;;22.83;;
14688;SDS011;7432;48.728;9.154;2022-12-18T10:13:30;43.30;;;22.17;;
14688;SDS011;7432;48.728;9.154;2022-12-18T10:16:03;39.53;;;22.80;;
14688;SDS011;7432;48.728;9.154;2022-12-18T10:18:39;39.67;;;22.37;;
14688;SDS011;7432;48.728;9.154;2022-12-18T10:21:17;41.30;;;22.70;;
14688;SDS011;7432;48.728;9.154;2022-12-18T10:23:49;46.00;;;24.27;;
14688;SDS011;7432;48.728;9.154;2022-12-18T10:26:23;47.30;;;23.57;;
14688;SDS011;7432;48.728;9.154;2022-12-18T10:28:50;43.53;;;22.43;;
14688;SDS011;7432;48.728;9.154;2022-12-18T10:31:18;41.53;;;22.73;;
14688;SDS011;7432;48.728;9.154;2022-12-18T10:33:46;43.83;;;23.17;;
14688;SDS011;7432;48.728;9.154;2022-12-18T10:36:12;40.77;;;22.30;;
14688;SDS011;7432;48.728;9.154;2022-12-18T10:38:39;39.97;;;21.43;;
14688;SDS011;7432;48.728;9.154;2022-12-18T10:41:08;39.37;;;22.00;;
14688;SDS011;7432;48.728;9.154;2022-12-18T10:44:10;36.77;;;20.67;;
14688;SDS011;7432;48.728;9.154;2022-12-18T10:46:38;37.37;;;21.00;;
14688;SDS011;7432;48.728;9.154;2022-12-18T10:49:05;41.67;;;21.07;;
14688;SDS011;7432;48.728;9.154;2022-12-18T10:51:32;38.97;;;20.20;;
14688;SDS011;7432;48.728;9.154;2022-12-18T10:54:00;34.73;;;19.50;;
14688;SDS011;7432;48.728;9.154;2022-12-18T10:56:31;34.03;;;18.83;;
14688;SDS011;7432;48.728;9.154;2022-12-18T10:59:01;36.67;;;20.43;;
14688;SDS011;7432;48.728;9.154;2022-12-18T11:01:31;39.17;;;20.13;;
14688;SDS011;7432;48.728;9.154;2022-12-18T11:04:13;37.53;;;20.00;;
14688;SDS011;7432;48.728;9.154;2022-12-18T11:06:52;36.43;;;20.37;;
14688;SDS011;7432;48.728;9.154;2022-12-18T11:09:21;39.07;;;20.70;;
14688;SDS011;7432;48.728;9.154;2022-12-18T11:11:51;42.93;;;21.03;;
14688;SDS011;7432;48.728;9.154;2022-12-18T11:14:20;34.13;;;20.07;;
14688;SDS011;7432;48.728;9.154;2022-12-18T11:16:49;38.33;;;19.80;;
14688;SDS011;7432;48.728;9.154;2022-12-18T11:19:28;32.03;;;18.63;;
14688;SDS011;7432;48.728;9.154;2022-12-18T11:21:58;34.77;;;19.23;;
14688;SDS011;7432;48.728;9.154;2022-12-18T11:24:27;35.13;;;20.17;;
14688;SDS011;7432;48.728;9.154;2022-12-18T11:26:57;36.87;;;19.87;;
14688;SDS011;7432;48.728;9.154;2022-12-18T11:29:33;38.17;;;20.73;;
14688;SDS011;7432;48.728;9.154;2022-12-18T11:32:14;35.40;;;19.53;;
14688;SDS011;7432;48.728;9.154;2022-12-18T11:34:51;34.00;;;19.97;;
14688;SDS011;7432;48.728;9.154;2022-12-18T11:37:23;36.93;;;19.23;;
14688;SDS011;7432;48.728;9.154;2022-12-18T11:39:51;39.03;;;21.73;;
14688;SDS011;7432;48.728;9.154;2022-12-18T11:42:24;41.37;;;22.50;;
14688;SDS011;7432;48.728;9.154;2022-12-18T11:44:57;40.53;;;20.97;;
14688;SDS011;7432;48.728;9.154;2022-12-18T11:47:27;42.07;;;22.37;;
14688;SDS011;7432;48.728;9.154;2022-12-18T11:50:00;39.00;;;21.13;;
14688;SDS011;7432;48.728;9.154;2022-12-18T11:52:28;38.10;;;21.07;;
14688;SDS011;7432;48.728;9.154;2022-12-18T11:55:05;41.47;;;22.37;;
14688;SDS011;7432;48.728;9.154;2022-12-18T11:57:40;42.87;;;22.47;;
14688;SDS011;7432;48.728;9.154;2022-12-18T12:00:16;46.47;;;23.20;;
14688;SDS011;7432;48.728;9.154;2022-12-18T12:02:49;43.83;;;24.00;;
14688;SDS011;7432;48.728;9.154;2022-12-18T12:05:38;43.57;;;25.07;;
14688;SDS011;7432;48.728;9.154;2022-12-18T12:08:18;42.90;;;23.47;;
14688;SDS011;7432;48.728;9.154;2022-12-18T12:10:56;41.77;;;22.57;;
14688;SDS011;7432;48.728;9.154;2022-12-18T12:13:40;41.93;;;23.80;;
14688;SDS011;7432;48.728;9.154;2022-12-18T12:16:15;39.33;;;21.93;;
14688;SDS011;7432;48.728;9.154;2022-12-18T12:18:57;40.63;;;22.73;;
14688;SDS011;7432;48.728;9.154;2022-12-18T12:21:35;39.20;;;21.43;;
14688;SDS011;7432;48.728;9.154;2022-12-18T12:24:10;43.93;;;23.73;;
14688;SDS011;7432;48.728;9.154;2022-12-18T12:26:49;38.40;;;22.57;;
14688;SDS011;7432;48.728;9.154;2022-12-18T12:29:31;48.43;;;23.73;;
14688;SDS011;7432;48.728;9.154;2022-12-18T12:32:07;42.80;;;23.30;;
14688;SDS011;7432;48.728;9.154;2022-12-18T12:34:45;37.20;;;20.50;;
14688;SDS011;7432;48.728;9.154;2022-12-18T12:37:21;33.73;;;19.73;;
14688;SDS011;7432;48.728;9.154;2022-12-18T12:39:57;39.00;;;20.70;;
14688;SDS011;7432;48.728;9.154;2022-12-18T12:42:29;37.53;;;20.53;;
14688;SDS011;7432;48.728;9.154;2022-12-18T12:45:21;34.20;;;19.53;;
14688;SDS011;7432;48.728;9.154;2022-12-18T12:47:53;34.93;;;19.57;;
14688;SDS011;7432;48.728;9.154;2022-12-18T12:50:21;37.67;;;19.97;;
14688;SDS011;7432;48.728;9.154;2022-12-18T12:52:49;35.00;;;20.07;;
14688;SDS011;7432;48.728;9.154;2022-12-18T12:55:20;33.17;;;18.40;;
14688;SDS011;7432;48.728;9.154;2022-12-18T12:57:51;35.10;;;19.67;;
14688;SDS011;7432;48.728;9.154;2022-12-18T13:00:30;37.27;;;18.57;;
14688;SDS011;7432;48.728;9.154;2022-12-18T13:02:59;34.67;;;19.50;;
14688;SDS011;7432;48.728;9.154;2022-12-18T13:05:34;38.10;;;20.47;;
14688;SDS011;7432;48.728;9.154;2022-12-18T13:08:05;35.13;;;18.73;;
14688;SDS011;7432;48.728;9.154;2022-12-18T13:10:35;36.17;;;19.17;;
14688;SDS011;7432;48.728;9.154;2022-12-18T13:13:04;30.00;;;17.93;;
14688;SDS011;7432;48.728;9.154;2022-12-18T13:15:42;32.63;;;18.00;;
14688;SDS011;7432;48.728;9.154;2022-12-18T13:18:18;33.07;;;17.70;;
14688;SDS011;7432;48.728;9.154;2022-12-18T13:20:46;33.97;;;19.23;;
14688;SDS011;7432;48.728;9.154;2022-12-18T13:23:28;32.97;;;19.30;;
14688;SDS011;7432;48.728;9.154;2022-12-18T13:25:57;37.33;;;18.93;;
14688;SDS011;7432;48.728;9.154;2022-12-18T13:34:35;35.37;;;19.80;;
14688;SDS011;7432;48.728;9.154;2022-12-18T13:43:22;33.70;;;19.10;;
14688;SDS011;7432;48.728;9.154;2022-12-18T13:45:58;37.57;;;20.23;;
14688;SDS011;7432;48.728;9.154;2022-12-18T13:48:31;33.23;;;19.57;;
14688;SDS011;7432;48.728;9.154;2022-12-18T13:51:01;33.77;;;19.83;;
14688;SDS011;7432;48.728;9.154;2022-12-18T13:53:31;34.27;;;19.33;;
14688;SDS011;7432;48.728;9.154;2022-12-18T13:56:01;39.10;;;22.03;;
14688;SDS011;7432;48.728;9.154;2022-12-18T13:58:29;37.20;;;21.03;;
14688;SDS011;7432;48.728;9.154;2022-12-18T14:00:55;32.43;;;18.40;;
14688;SDS011;7432;48.728;9.154;2022-12-18T14:03:25;35.87;;;20.50;;
14688;SDS011;7432;48.728;9.154;2022-12-18T14:05:54;36.40;;;19.97;;
14688;SDS011;7432;48.728;9.154;2022-12-18T14:08:25;38.77;;;20.30;;
14688;SDS011;7432;48.728;9.154;2022-12-18T14:10:56;38.03;;;20.07;;
14688;SDS011;7432;48.728;9.154;2022-12-18T14:13:23;38.03;;;20.60;;
14688;SDS011;7432;48.728;9.154;2022-12-18T14:15:54;36.13;;;20.40;;
14688;SDS011;7432;48.728;9.154;2022-12-18T14:18:22;34.43;;;19.57;;
14688;SDS011;7432;48.728;9.154;2022-12-18T14:20:52;40.43;;;21.97;;
14688;SDS011;7432;48.728;9.154;2022-12-18T14:23:28;32.67;;;19.40;;
14688;SDS011;7432;48.728;9.154;2022-12-18T14:25:57;39.57;;;21.57;;
14688;SDS011;7432;48.728;9.154;2022-12-18T14:28:24;37.73;;;21.10;;
14688;SDS011;7432;48.728;9.154;2022-12-18T14:30:51;39.03;;;21.07;;
14688;SDS011;7432;48.728;9.154;2022-12-18T14:33:18;36.40;;;20.13;;
14688;SDS011;7432;48.728;9.154;2022-12-18T14:35:52;41.10;;;21.37;;
14688;SDS011;7432;48.728;9.154;2022-12-18T14:38:23;41.53;;;20.70;;
14688;SDS011;7432;48.728;9.154;2022-12-18T14:40:53;38.57;;;20.57;;
14688;SDS011;7432;48.728;9.154;2022-12-18T14:43:24;39.90;;;20.47;;
14688;SDS011;7432;48.728;9.154;2022-12-18T14:45:51;40.93;;;20.57;;
14688;SDS011;7432;48.728;9.154;2022-12-18T14:48:18;44.10;;;22.40;;
14688;SDS011;7432;48.728;9.154;2022-12-18T14:50:53;39.93;;;22.47;;
14688;SDS011;7432;48.728;9.154;2022-12-18T14:53:22;39.93;;;20.97;;
14688;SDS011;7432;48.728;9.154;2022-12-18T14:55:56;40.70;;;21.80;;
14688;SDS011;7432;48.728;9.154;2022-12-18T14:58:22;40.17;;;21.27;;
14688;SDS011;7432;48.728;9.154;2022-12-18T15:00:49;41.13;;;21.20;;